Weather observations for the past three days for
Jacksonville Municipal Airport
Imperial (Metric)
Date Time (cdt) Wind (mph) Vis. (mi.) Weather Sky Cond. Temperature (ºF) Relative Humidity Wind Chill (°F) Heat Index (°F) Pressure Precipitation (in)
Air Dwpt 6 hour altimeter (in) sea level (mb) 1 hr 3 hr 6 hr
Max. Min.
06 12:55 E 9 10.00 Fair CLR 83.7 68.4 84 70 60% 87 30.05 0.0
06 12:35 E 9 10.00 Fair CLR 82 68.5 64% 85 30.06 0.0
06 12:15 NE 10 10.00 Partly Cloudy SCT026 SCT030 81.7 69.8 67% 85 30.07 0.0
06 11:55 NE 9 10.00 Mostly Cloudy BKN024 BKN030 80.6 70.3 71% 84 30.07 0.0
06 11:35 NE 5 10.00 Mostly Cloudy BKN022 BKN027 79 69.6 73% 82 30.08 0.0
06 11:15 NE 8 10.00 Mostly Cloudy BKN020 78.1 69.3 74% 80 30.08 0.0
06 10:55 E 9 G 18 10.00 Mostly Cloudy BKN014 77.5 69.8 77% 79 30.08 0.0
06 10:35 NE 8 10.00 Overcast OVC012 75.6 70 83% 76 30.07 0.0
06 10:15 E 7 10.00 Overcast OVC010 73.9 71.6 92% 30.06 0.0
06 09:55 NE 7 10.00 Overcast OVC008 73.4 72.3 96% 30.07 0.0
06 09:35 NE 9 7.00 Overcast OVC008 73.4 72.1 96% 30.06 0.0
06 09:15 NE 7 7.00 Overcast OVC008 72.7 72.5 99% 30.06 0.0
06 08:55 NE 5 7.00 Overcast OVC006 72.1 72.1 100% 30.06 0.0
06 08:35 Calm 5.00 Overcast OVC004 71.6 71.6 100% 30.06 0.0
06 08:15 Calm 2.50 Overcast OVC004 71.1 71.1 100% 30.05 0.0
06 07:55 Calm 2.00 Overcast OVC004 70.7 70.7 100% 30.05 0.0
06 07:35 NE 3 2.00 Overcast OVC004 70.3 70.3 100% 30.05 0.0
06 07:15 NE 3 2.50 Overcast OVC004 70.2 70.2 100% 30.04 0.0
06 06:55 E 3 3.00 Overcast OVC004 70 70 74.3 69.1 100% 30.03 0.0
06 06:35 Calm 5.00 Overcast OVC004 70 70 100% 30.03 0.0
06 06:15 Calm 4.00 Overcast OVC004 69.8 69.8 100% 30.02 0.0
06 05:55 NE 3 2.00 Overcast OVC004 69.3 69.3 100% 30.02 0.0
06 05:35 NE 3 4.00 Overcast OVC004 69.3 69.3 100% 30.01 0.0
06 05:15 NE 6 7.00 Overcast OVC006 69.4 69.4 100% 30.01 0.0
06 04:55 E 6 10.00 Overcast OVC008 69.4 69.4 100% 30 0.0
06 04:35 NE 7 10.00 Overcast OVC008 69.4 69.4 100% 29.99 0.0
06 04:15 NE 7 10.00 Partly Cloudy SCT010 69.3 69.3 100% 29.99 0.0
06 03:55 NE 7 10.00 Fair CLR 69.6 69.6 100% 29.99 0.0
06 03:35 NE 5 10.00 Fair CLR 70 70 100% 29.99 0.0
06 03:15 NE 8 10.00 Fair CLR 70.7 70.7 100% 29.99 0.0
06 02:55 NE 7 10.00 Fair CLR 71.6 71.6 100% 29.99 0.0
06 02:35 E 8 10.00 Partly Cloudy SCT030 72.3 72.3 100% 29.99 0.0
06 02:15 NE 8 10.00 Mostly Cloudy BKN030 73.6 72.5 96% 30 0.0
06 01:55 NE 7 10.00 Overcast OVC028 74.3 73.6 98% 30 0.0
06 01:35 NE 5 10.00 Mostly Cloudy BKN028 73.9 73.9 100% 30 0.0
06 01:15 NE 5 10.00 Partly Cloudy SCT028 73 73 100% 30 0.0
06 00:55 NE 3 10.00 Fair CLR 73.4 73.4 87.6 73.4 100% 30 0.0
06 00:35 E 5 10.00 Fair CLR 74.3 74.3 100% 29.99 0.0
06 00:15 E 5 10.00 Fair CLR 75.2 74.1 96% 73 29.99 0.0
05 23:55 E 7 10.00 Fair CLR 76.1 73.8 93% 76 29.98 0.0
05 23:35 E 8 10.00 Fair CLR 77 73.8 90% 78 29.97 0.0
05 23:15 NE 8 10.00 Fair CLR 77.9 73.6 87% 80 29.97 0.0
05 22:55 NE 7 10.00 Fair CLR 78.6 74.3 87% 82 29.96 0.0
05 22:35 NE 7 10.00 Fair CLR 79.2 74.8 87% 83 29.96 0.0
05 22:15 NE 9 10.00 Partly Cloudy SCT035 80.2 75.2 85% 85 29.95 0.0
05 21:55 NE 10 10.00 Mostly Cloudy BKN035 81.5 75.7 83% 88 29.95 0.0
05 21:35 NE 8 10.00 Partly Cloudy SCT035 81.9 76.1 83% 89 29.95 0.0
05 21:15 N 3 10.00 Fair CLR 81.1 75.6 83% 87 29.94 0.0
05 20:55 N 3 10.00 Fair CLR 82.4 75.7 80% 90 29.93 0.0
05 20:35 NE 5 10.00 Fair CLR 82.6 76.1 81% 90 29.92 0.0
05 20:15 NE 5 10.00 Fair CLR 83.3 76.3 79% 92 29.92 0.0
05 19:55 N 5 10.00 Fair CLR 84 76.1 77% 93 29.91 0.0
05 19:35 N 5 10.00 Fair CLR 85.1 76.1 75% 95 29.91 0.0
05 19:15 N 3 10.00 Fair CLR 86.4 76.1 72% 97 29.9 0.0
05 18:55 N 3 10.00 Fair CLR 87.8 76.1 96.1 87.8 68% 99 29.91 0.0
05 18:35 N 5 10.00 Fair CLR 89.8 75.7 63% 101 29.91 0.0
05 18:15 N 7 10.00 Fair CLR 91.2 75.4 60% 103 29.91 0.0
05 17:55 N 7 10.00 Fair CLR 91.4 75.4 60% 103 29.91 0.0
05 17:35 NE 9 10.00 Fair CLR 92.3 76.3 60% 105 29.9 0.0
05 17:15 N 6 10.00 Fair CLR 93.4 75.2 56% 105 29.9 0.0
05 16:55 N 8 10.00 Fair CLR 94.3 74.3 52% 105 29.9 0.0
05 16:35 N 9 10.00 Fair CLR 95 75.2 53% 107 29.9 0.0
05 16:15 N 5 10.00 Fair CLR 94.5 75.4 54% 107 29.9 0.0
05 15:55 N 7 10.00 Partly Cloudy SCT065 SCT070 SCT085 94.3 75.6 55% 107 29.91 0.0
05 15:35 N 10 10.00 Mostly Cloudy SCT050 BKN065 BKN070 96.1 74.8 50% 108 29.91 0.0
05 15:15 N 3 10.00 Mostly Cloudy BKN050 BKN080 94.8 75.4 53% 107 29.92 0.0
05 14:55 N 3 10.00 Mostly Cloudy BKN050 BKN080 95.5 73.9 50% 106 29.92 0.0
05 12:55 NW 7 10.00 Fair CLR 94.5 72.3 95 72 49% 103 29.94 0.0
05 12:35 N 6 10.00 Fair CLR 94.3 74.1 52% 105 29.95 0.0
05 12:15 N 3 10.00 Fair CLR 93.6 74.3 54% 104 29.95 0.0
05 11:55 NW 7 10.00 Fair CLR 93.2 74.5 55% 104 29.96 0.0
05 11:35 N 3 10.00 Fair CLR 93.2 74.5 55% 104 29.96 0.0
05 11:15 Calm 10.00 Fair CLR 91.8 74.7 57% 102 29.95 0.0
05 10:55 NW 3 10.00 Partly Cloudy SCT120 91 74.3 58% 101 29.96 0.0
05 10:35 NW 3 10.00 Partly Cloudy SCT120 90.3 74.3 59% 100 29.96 0.0
05 10:15 Calm 10.00 Partly Cloudy SCT120 88.9 74.1 62% 98 29.96 0.0
05 09:55 Calm 10.00 Partly Cloudy SCT120 87.8 73.6 63% 96 29.95 0.0
05 09:35 Calm 10.00 Partly Cloudy SCT120 86 74.1 68% 94 29.95 0.0
05 09:15 Calm 10.00 Fair CLR 85.8 73.2 66% 93 29.95 0.0
05 08:55 Calm 10.00 Fair CLR 83.8 73 70% 90 29.95 0.0
05 08:35 Calm 10.00 Fair CLR 83.3 72 69% 89 29.95 0.0
05 08:15 Calm 10.00 Fair CLR 81.3 73.4 77% 87 29.95 0.0
05 07:55 Calm 10.00 Fair CLR 79 74.5 86% 83 29.95 0.0
05 07:35 Calm 10.00 Fair CLR 76.1 74.8 96% 76 29.95 0.0
05 07:15 Calm 10.00 Fair CLR 73.8 73.8 100% 29.94 0.0
05 06:55 Calm 10.00 Fair CLR 72 72 73.9 71.6 100% 29.93 0.0
05 06:35 Calm 10.00 Fair CLR 71.8 71.8 100% 29.93 0.0
05 06:15 Calm 10.00 Fair CLR 72 72 100% 29.92 0.0
05 05:55 Calm 10.00 Fair CLR 72.3 72.3 100% 29.92 0.0
05 05:35 Calm 10.00 Fair CLR 72.7 72.7 100% 29.93 0.0
05 05:15 Calm 10.00 Fair CLR 72.5 72.5 100% 29.93 0.0
05 04:55 Calm 10.00 Fair CLR 72.9 72.9 100% 29.92 0.0
05 04:35 Calm 10.00 Fair CLR 72.7 72.7 100% 29.93 0.0
05 04:15 Calm 10.00 Fair CLR 72.7 72.7 100% 29.93 0.0
05 03:55 Calm 10.00 Fair CLR 72.9 72.9 100% 29.93 0.0
05 03:35 Calm 10.00 Fair CLR 72.9 72.9 100% 29.93 0.0
05 03:15 Calm 10.00 Fair CLR 73.4 73.4 100% 29.94 0.0
05 02:55 Calm 10.00 Fair CLR 73.4 73.4 100% 29.94 0.0
05 02:35 Calm 10.00 Fair CLR 73.4 73.4 100% 29.94 0.0
05 02:15 Calm 10.00 Fair CLR 73.6 73.6 100% 29.93 0.0
05 01:55 Calm 10.00 Fair CLR 73.4 73.4 100% 29.93 0.0
05 01:35 Calm 10.00 Fair CLR 73.4 73.4 100% 29.94 0.0
05 01:15 Calm 10.00 Fair CLR 73.4 73.4 100% 29.94 0.0
05 00:55 Calm 10.00 Fair CLR 73.4 73.4 89.8 73.4 100% 29.94 0.0
05 00:35 Calm 10.00 Fair CLR 74.7 74.7 100% 29.94 0.0
05 00:15 Calm 10.00 Fair CLR 76.3 72.5 88% 77 29.93 0.0
04 23:55 Calm 10.00 Fair CLR 76.1 72.9 90% 76 29.93 0.0
04 23:35 E 3 10.00 Fair CLR 77 72.9 87% 78 29.94 0.0
04 23:15 Calm 10.00 Fair CLR 77.5 73 86% 79 29.94 0.0
04 22:55 Calm 10.00 Fair CLR 77 73 88% 78 29.94 0.0
04 22:35 Calm 10.00 Fair CLR 78.8 72.9 82% 82 29.94 0.0
04 22:15 SE 5 10.00 Fair CLR 79.9 73.6 81% 84 29.93 0.0
04 21:55 Calm 10.00 Fair CLR 79 73.9 85% 83 29.93 0.0
04 21:35 SE 3 10.00 Fair CLR 79 74.3 86% 83 29.93 0.0
04 21:15 Calm 10.00 Fair CLR 79.2 74.5 86% 83 29.92 0.0
04 20:55 Calm 10.00 Fair CLR 80.1 74.8 84% 85 29.92 0.0
04 20:35 Calm 10.00 Fair CLR 80.8 75.2 83% 87 29.91 0.0
04 20:15 Calm 10.00 Fair CLR 81.1 75.7 84% 88 29.91 0.0
04 19:55 E 3 10.00 Fair CLR 86 75 70% 95 29.91 0.0
04 19:35 Calm 10.00 Fair CLR 84.6 77.2 79% 95 29.9 0.0
04 19:15 Calm 10.00 Fair CLR 87.3 76.6 71% 99 29.9 0.0
04 18:55 Calm 10.00 Fair CLR 90.3 77.7 96.6 90.3 67% 105 29.9 0.0
04 18:35 Calm 10.00 Fair CLR 93.9 73.6 52% 104 29.9 0.0
04 18:15 Calm 10.00 Fair CLR 94.1 73.2 51% 104 29.91 0.0
04 17:55 Calm 10.00 Partly Cloudy SCT065 94.5 72.9 50% 104 29.9 0.0
04 17:35 Calm 10.00 Fair CLR 95.9 71.8 46% 104 29.91 0.0
04 17:15 Calm 10.00 Fair CLR 96.1 72 46% 105 29.91 0.0
04 16:55 W 3 10.00 Fair CLR 95.9 71.6 45% 104 29.91 0.0
04 16:35 SE 3 10.00 Fair CLR 95.5 71.6 46% 104 29.91 0.0
04 16:15 NW 3 10.00 Partly Cloudy SCT060 95.4 72 47% 104 29.92 0.0
04 15:55 NE 3 10.00 Mostly Cloudy BKN060 BKN075 95.9 72.3 47% 105 29.93 0.0
04 15:35 Calm 10.00 Partly Cloudy SCT060 SCT075 96.1 72.7 47% 106 29.93 0.0
04 15:15 N 3 10.00 Partly Cloudy SCT060 95.7 73 48% 106 29.94 0.0
04 14:55 W 3 10.00 Partly Cloudy SCT060 95.9 71.8 46% 104 29.95 0.0
04 14:35 NW 5 10.00 Fair CLR 95.4 72.9 48% 105 29.96 0.0
04 14:15 NW 5 10.00 Fair CLR 95 72.5 48% 104 29.96 0.0
04 13:55 W 5 10.00 Fair CLR 95.4 72.9 48% 105 29.97 0.0
04 13:35 NW 5 10.00 Fair CLR 94.5 72.3 49% 103 29.97 0.0
04 13:15 W 7 10.00 Fair CLR 94.3 72.3 49% 103 29.98 0.0
04 12:55 NW 7 10.00 Fair CLR 94.5 73.2 94.5 77 50% 104 29.98 0.0
04 12:35 W 5 10.00 Fair CLR 93.9 72.9 51% 103 29.98 0.0
04 12:15 NW 6 10.00 Fair CLR 93.2 73 52% 102 29.99 0.0
04 11:55 Calm 10.00 Fair CLR 93.2 73.2 52% 103 29.99 0.0
04 11:35 W 8 10.00 Fair CLR 92.3 73 53% 101 29.99 0.0
04 11:15 SW 6 10.00 Fair CLR 91 73.4 56% 100 29.99 0.0
04 10:55 SW 6 10.00 Fair CLR 90.5 73.2 57% 99 29.99 0.0
04 10:35 W 5 10.00 Fair CLR 89.4 72.7 58% 97 29.99 0.0
04 10:15 SW 6 10.00 Fair CLR 88.7 72.5 59% 96 29.99 0.0
04 09:55 SW 8 10.00 Fair CLR 88 72.7 61% 95 29.98 0.0
04 09:35 SW 7 10.00 Fair CLR 86.9 72.3 62% 94 29.98 0.0
04 09:15 SW 7 10.00 Fair CLR 85.1 71.8 64% 91 29.97 0.0
04 08:55 SW 9 10.00 Fair CLR 83.8 70.9 65% 89 29.97 0.0
04 08:35 SW 9 10.00 Fair CLR 82.6 70.9 68% 87 29.97 0.0
04 08:15 SW 6 10.00 Fair CLR 80.8 70.7 72% 84 29.97 0.0
04 07:55 SW 7 10.00 Fair CLR 80.6 70.3 71% 84 29.97 0.0
04 07:35 SW 7 10.00 Fair CLR 79.3 70.2 74% 82 29.96 0.0
04 07:15 S 5 10.00 Fair CLR 77.7 70.2 78% 80 29.97 0.0
04 06:55 S 5 10.00 Fair CLR 77 70 81 75.9 79% 79 29.96 0.0
04 06:35 S 6 10.00 Fair CLR 76.5 69.8 80% 78 29.96 0.0
04 06:15 S 3 10.00 Fair CLR 76.6 69.8 79% 78 29.96 0.0
04 05:55 S 5 10.00 Fair CLR 77.4 69.8 78% 79 29.95 0.0
04 05:35 S 5 10.00 Fair CLR 77.7 70 77% 80 29.95 0.0
04 05:15 S 6 10.00 Fair CLR 77.9 70.2 77% 80 29.94 0.0
04 04:55 S 6 10.00 Fair CLR 77.9 70.2 77% 80 29.94 0.0
04 04:35 S 5 10.00 Fair CLR 78.4 70.3 76% 81 29.93 0.0
04 04:15 S 6 10.00 Fair CLR 79 70.7 76% 82 29.93 0.0
04 03:55 S 6 10.00 Fair CLR 79.2 70.7 75% 82 29.93 0.0
04 03:35 S 7 10.00 Partly Cloudy SCT080 79.5 70.9 75% 83 29.93 0.0
04 03:15 S 5 10.00 Mostly Cloudy BKN080 80.2 70.9 73% 84 29.93 0.0
04 02:55 S 5 10.00 Mostly Cloudy BKN080 80.2 70.9 73% 84 29.93 0.0
04 02:35 S 6 10.00 Partly Cloudy SCT080 80.4 70.9 73% 84 29.93 0.0
04 02:15 S 5 10.00 Fair CLR 80.2 70.7 73% 84 29.93 0.0
04 01:55 S 5 10.00 Fair CLR 80.4 70.7 72% 84 29.93 0.0
04 01:35 S 5 10.00 Fair CLR 81 70.7 71% 85 29.94 0.0
04 01:15 S 5 10.00 Fair CLR 79.9 70.2 72% 83 29.94 0.0
04 00:55 Calm 10.00 Fair CLR 79.7 70.2 89.6 79.7 73% 83 29.94 0.0
04 00:35 S 3 10.00 Fair CLR 80.6 70.3 71% 84 29.94 0.0
04 00:15 S 6 10.00 Fair CLR 81.9 70 67% 86 29.94 0.0
03 23:55 S 7 10.00 Fair CLR 83.1 69.8 64% 87 29.93 0.0
03 23:35 S 8 10.00 Fair CLR 84.2 69.6 62% 88 29.93 0.0
03 23:15 S 5 10.00 Fair CLR 83.8 69.3 62% 88 29.93 0.0
03 22:55 SE 6 10.00 Fair CLR 83.8 68.9 61% 87 29.93 0.0
03 22:35 S 7 10.00 Fair CLR 84.2 68.5 59% 88 29.93 0.0
03 22:15 S 6 10.00 Fair CLR 83.3 68.2 60% 86 29.93 0.0
03 21:55 S 5 10.00 Fair CLR 83.3 68 60% 86 29.93 0.0
03 21:35 S 3 10.00 Fair CLR 82.6 68.4 62% 86 29.93 0.0
03 21:15 SE 3 10.00 Fair CLR 83.8 68.2 59% 87 29.93 0.0
03 20:35 S 5 10.00 Fair CLR 85.3 68.5 57% 89 29.91 0.0
03 20:15 S 5 10.00 Fair CLR 84.6 69.1 60% 88 29.9 0.0
03 19:55 S 5 10.00 Fair CLR 85.8 69.1 57% 90 29.9 0.0
03 19:35 S 5 10.00 Fair CLR 87.1 69.3 56% 91 29.9 0.0
03 19:15 S 5 10.00 Fair CLR 87.6 70 56% 93 29.9 0.0
03 18:55 S 5 10.00 Fair CLR 89.8 70.3 96.8 89.6 53% 95 29.9 0.0
03 18:35 S 5 10.00 Partly Cloudy SCT080 SCT085 90.5 70.3 52% 96 29.91 0.0
03 18:15 S 6 10.00 Partly Cloudy SCT080 93.6 69.6 46% 99 29.9 0.0
03 17:55 S 3 10.00 Fair CLR 95 70.9 46% 102 29.9 0.0
03 17:35 SW 5 10.00 Fair CLR 95.2 70.5 45% 102 29.9 0.0
03 17:15 SW 5 10.00 Fair CLR 95.9 70.2 43% 103 29.9 0.0
03 16:55 SW 5 10.00 Fair CLR 95.9 70.7 44% 103 29.9 0.0
03 16:35 SW 5 10.00 Fair CLR 96.1 69.3 42% 102 29.9 0.0
03 16:15 S 5 10.00 Partly Cloudy SCT065 96.1 70 43% 103 29.91 0.0
03 15:55 SW 8 10.00 Mostly Cloudy BKN065 96.6 72 45% 105 29.91 0.0
03 15:35 SW 8 10.00 Mostly Cloudy BKN065 95.4 71.1 45% 103 29.92 0.0
03 15:15 W 5 10.00 Mostly Cloudy BKN065 BKN090 95.9 72.3 47% 105 29.92 0.0
03 14:55 W 3 10.00 Partly Cloudy SCT060 95.4 71.2 46% 103 29.93 0.0
03 14:35 SW 8 10.00 Partly Cloudy SCT060 95.4 71.4 46% 103 29.93 0.0
03 14:15 Calm 10.00 Partly Cloudy SCT060 SCT070 94.8 70.9 46% 102 29.93 0.0
03 13:55 W 6 10.00 Mostly Cloudy SCT060 BKN080 BKN090 93.9 71.4 48% 102 29.94 0.0
03 13:35 Calm 10.00 Partly Cloudy SCT060 SCT070 SCT080 93.2 71.2 49% 100 29.95 0.0
Date Time (cdt) Wind (mph) Vis. (mi.) Weather Sky Cond. Air Dwpt Max. Min. Relative Humidity Wind Chill (°F) Heat Index (°F) altimeter (in) sea level (mb) 1 hr 3 hr 6 hr
6 hour
Temperature (ºF) Pressure Precipitation (in)